East Moline, Illinois
Current Conditions -  °F | °C
As of 12:52 PM on Wednesday 26 Nov 2014 (Local Time) from KMLI Reporting Station
Few Clouds Few Clouds  
Wind Chill: 18°   Ceiling: Unl
Heat Index: 29°   Visibility: 7mi
Dew Point: 24°   Wind: 15mph
Humidity: 82%   Direction: 90°E
Pressure: 30.05"   Gusts: NA
Location:  41.52°N, 90.44°W
Report Text: KMLI 261852Z 09013KT 7SM FEW012 FEW070 M02/M04 A3005 RMK AO2 SLP185 T10171044
Loading
Personal Weather Stations






























Interactive Weather Map New forecast layout! Learn more

10-Day Weather Forecast

Advertisements
Track Severe Weather on mobile